Pagrindinis puslapis
METAR-TAF:

METAR-TAF

Oro uostai :

Duke Field, Florida, Jungtinės Amerikos Valstijos

platuma: 30-39N, ilguma: 086-31W, Aukštis: 59 m

Dabartinis oras

Ataskaita buvo paskelbta 17 minutes, ne 18:24 UTC
Ramus vėjas
Temperatūra 13°C
Drėgmė 100%
Slėgis 1019 hPa
Matomumas: 16.1 km
Mažai debesys ne aukštis 500 ft
lietus

METAR: KEGI 161824Z AUTO 00000KT 10SM -RA FEW005 13/13 A3009 RMK AO2 SLP190 $

Laikas: 12:41 (18:41 UTC)


TAF: trūkstamas

Orai ataskaitas ir orų prognozės (METAR, TAF).

turimą stotys yra geltonos ir raudonos taškus žemėlapyje.

Perkelti pele per norėdami pamatyti stoties vardą.

Tada spustelėkite, norėdami matyti oro stebėjimo ir prognozės.

Norėdami pakeisti žemėlapį: spustelėkite ant žalios mygtukų su juodo kryžiaus žemyn,; žalią mygtuką su brūkšneliu, jei norite nutolinti; arba žalių rodyklių gretimoms žemėlapius.


METAR-TAF: